createdAt,value
2018-07-14T00:00:59.638Z,0.00
2018-07-14T00:01:59.637Z,0.00
2018-07-14T00:02:59.634Z,0.00
2018-07-14T00:03:59.642Z,0.00
2018-07-14T00:04:59.660Z,0.00
2018-07-14T00:05:59.641Z,0.00
2018-07-14T00:06:59.650Z,0.00
2018-07-14T00:07:59.664Z,0.00
2018-07-14T00:08:59.669Z,0.00
2018-07-14T00:09:59.671Z,0.00
2018-07-14T00:10:59.667Z,0.00
2018-07-14T00:11:59.677Z,0.00
2018-07-14T00:12:59.672Z,0.00
2018-07-14T00:13:59.676Z,0.00
2018-07-14T00:14:59.674Z,0.00
2018-07-14T00:15:59.705Z,0.00
2018-07-14T00:16:59.688Z,0.00
2018-07-14T00:19:59.696Z,0.00
2018-07-14T00:20:59.711Z,0.00
2018-07-14T00:22:00.800Z,0.00
2018-07-14T00:22:59.794Z,0.00
2018-07-14T00:23:59.720Z,0.00
2018-07-14T00:24:59.715Z,0.00
2018-07-14T00:25:59.705Z,0.00
2018-07-14T00:26:59.710Z,0.00
2018-07-14T00:27:59.711Z,0.00
2018-07-14T00:28:59.730Z,0.00
2018-07-14T00:29:59.734Z,0.00
2018-07-14T00:30:59.717Z,0.00
2018-07-14T00:31:59.722Z,0.00
2018-07-14T00:32:59.735Z,0.00
2018-07-14T00:33:59.741Z,0.00
2018-07-14T00:34:59.728Z,0.00
2018-07-14T00:35:59.758Z,0.00
2018-07-14T00:36:59.738Z,0.00
2018-07-14T00:37:59.774Z,0.00
2018-07-14T00:38:59.763Z,0.00
2018-07-14T00:39:59.758Z,0.00
2018-07-14T00:40:59.745Z,0.00
2018-07-14T00:41:59.755Z,0.00
2018-07-14T00:42:59.745Z,0.00
2018-07-14T00:43:59.765Z,0.00
2018-07-14T00:44:59.776Z,0.00
2018-07-14T00:45:59.776Z,0.00
2018-07-14T00:46:59.788Z,0.00
2018-07-14T00:47:59.765Z,0.00
2018-07-14T00:48:59.769Z,0.00
2018-07-14T00:49:59.786Z,0.00
2018-07-14T00:50:59.778Z,0.00
2018-07-14T00:51:59.787Z,0.00
2018-07-14T00:52:59.784Z,0.00
2018-07-14T00:53:59.782Z,0.00
2018-07-14T00:54:59.782Z,0.00
2018-07-14T00:55:59.787Z,0.00
2018-07-14T00:56:59.802Z,0.00
2018-07-14T00:57:59.791Z,0.00
2018-07-14T00:58:59.802Z,0.00
2018-07-14T00:59:59.805Z,0.00
2018-07-14T01:00:59.807Z,0.00
2018-07-14T01:01:59.843Z,0.00
2018-07-14T01:02:59.805Z,0.00
2018-07-14T01:03:59.827Z,0.00
2018-07-14T01:04:59.829Z,0.00
2018-07-14T01:05:59.843Z,0.00
2018-07-14T01:06:59.829Z,0.00
2018-07-14T01:07:59.824Z,0.00
2018-07-14T01:08:59.839Z,0.00
2018-07-14T01:09:59.832Z,0.00
2018-07-14T01:10:59.827Z,0.00
2018-07-14T01:11:59.837Z,0.00
2018-07-14T01:12:59.843Z,0.00
2018-07-14T01:14:00.310Z,0.00
2018-07-14T01:14:59.852Z,0.00
2018-07-14T01:15:59.877Z,0.00
2018-07-14T01:16:59.854Z,0.00
2018-07-14T01:17:59.850Z,0.00
2018-07-14T01:18:59.865Z,0.00
2018-07-14T01:19:59.859Z,0.00
2018-07-14T01:20:59.866Z,0.00
2018-07-14T01:21:59.867Z,0.00
2018-07-14T01:22:59.882Z,0.00
2018-07-14T01:23:59.869Z,0.00
2018-07-14T01:24:59.874Z,0.00
2018-07-14T01:25:59.879Z,0.00
2018-07-14T01:27:00.815Z,0.00
2018-07-14T01:27:59.884Z,0.00
2018-07-14T01:28:59.893Z,0.00
2018-07-14T01:29:59.900Z,0.00
2018-07-14T01:30:59.890Z,0.00
2018-07-14T01:31:59.896Z,0.00
2018-07-14T01:32:59.933Z,0.00
2018-07-14T01:33:59.895Z,0.00
2018-07-14T01:34:59.917Z,0.00
2018-07-14T01:35:59.909Z,0.00
2018-07-14T01:36:59.906Z,0.00
2018-07-14T01:37:59.927Z,0.00
2018-07-14T01:38:59.922Z,0.00
2018-07-14T01:39:59.933Z,0.00
2018-07-14T01:40:59.914Z,0.00
2018-07-14T01:41:59.920Z,0.00
2018-07-14T01:42:59.925Z,0.00
2018-07-14T01:43:59.925Z,0.00
2018-07-14T01:44:59.928Z,0.00
2018-07-14T01:45:59.918Z,0.00
2018-07-14T01:46:59.965Z,0.00
2018-07-14T01:47:59.946Z,0.00
2018-07-14T01:48:59.938Z,0.00
2018-07-14T01:49:59.948Z,0.00
2018-07-14T01:50:59.939Z,0.00
2018-07-14T01:51:59.947Z,0.00
2018-07-14T01:52:59.955Z,0.00
2018-07-14T01:53:59.952Z,0.00
2018-07-14T01:54:59.955Z,0.00
2018-07-14T01:56:00.828Z,0.00
2018-07-14T01:56:59.962Z,0.00
2018-07-14T01:57:59.967Z,0.00
2018-07-14T01:58:59.964Z,0.00
2018-07-14T01:59:59.966Z,0.00
2018-07-14T02:00:59.973Z,0.00
2018-07-14T02:01:59.996Z,0.00
2018-07-14T02:02:59.971Z,0.00
2018-07-14T02:03:59.983Z,0.00
2018-07-14T02:04:59.983Z,0.00
2018-07-14T02:05:59.973Z,0.00
2018-07-14T02:06:59.980Z,0.00
2018-07-14T02:08:00.058Z,0.00
2018-07-14T02:09:00.045Z,0.00
2018-07-14T02:09:59.994Z,0.00
2018-07-14T02:11:00.037Z,0.00
2018-07-14T02:12:00.006Z,0.00
2018-07-14T02:13:00.008Z,0.00
2018-07-14T02:14:00.025Z,0.00
2018-07-14T02:15:00.027Z,0.00
2018-07-14T02:16:00.018Z,0.00
2018-07-14T02:17:00.020Z,0.00
2018-07-14T02:18:00.835Z,0.00
2018-07-14T02:19:00.035Z,0.00
2018-07-14T02:20:00.024Z,0.00
2018-07-14T02:21:00.031Z,0.00
2018-07-14T02:22:00.027Z,0.00
2018-07-14T02:23:00.033Z,0.00
2018-07-14T02:24:00.033Z,0.00
2018-07-14T02:25:00.048Z,0.00
2018-07-14T02:26:00.042Z,0.00
2018-07-14T02:27:00.067Z,0.00
2018-07-14T02:28:00.042Z,0.00
2018-07-14T02:29:00.036Z,0.00
2018-07-14T02:30:00.065Z,0.00
2018-07-14T02:31:00.842Z,0.00
2018-07-14T02:32:00.057Z,0.00
2018-07-14T02:33:00.061Z,0.00
2018-07-14T02:34:00.076Z,0.00
2018-07-14T02:35:00.080Z,0.00
2018-07-14T02:36:00.080Z,0.00
2018-07-14T02:37:00.070Z,0.00
2018-07-14T02:38:00.074Z,0.00
2018-07-14T02:39:00.070Z,0.00
2018-07-14T02:40:00.085Z,0.00
2018-07-14T02:41:00.078Z,0.00
2018-07-14T02:42:00.084Z,0.00
2018-07-14T02:43:00.077Z,0.00
2018-07-14T02:44:00.101Z,0.00
2018-07-14T02:45:00.089Z,0.00
2018-07-14T02:46:00.084Z,0.00
2018-07-14T02:47:00.097Z,0.00
2018-07-14T02:48:00.122Z,0.00
2018-07-14T02:49:00.096Z,0.00
2018-07-14T02:50:00.111Z,0.00
2018-07-14T02:51:00.115Z,0.00
2018-07-14T02:52:00.115Z,0.00
2018-07-14T02:53:00.113Z,0.00
2018-07-14T02:54:00.114Z,0.00
2018-07-14T02:55:00.119Z,0.00
2018-07-14T02:56:00.129Z,0.00
2018-07-14T02:57:00.116Z,0.00
2018-07-14T02:58:00.148Z,0.00
2018-07-14T02:59:00.127Z,0.00
2018-07-14T03:00:00.127Z,0.00
2018-07-14T03:01:00.127Z,0.00
2018-07-14T03:02:00.143Z,0.00
2018-07-14T03:03:00.142Z,0.00
2018-07-14T03:04:00.141Z,0.00
2018-07-14T03:05:00.184Z,0.00
2018-07-14T03:06:00.147Z,0.00
2018-07-14T03:07:00.153Z,0.00
2018-07-14T03:08:00.157Z,0.00
2018-07-14T03:09:00.165Z,0.00
2018-07-14T03:10:00.163Z,0.00
2018-07-14T03:11:00.178Z,0.00
2018-07-14T03:12:00.226Z,0.00
2018-07-14T03:13:00.309Z,0.00
2018-07-14T03:14:00.172Z,0.00
2018-07-14T03:15:00.182Z,0.00
2018-07-14T03:16:00.176Z,0.00
2018-07-14T03:17:00.170Z,0.00
2018-07-14T03:18:00.179Z,0.00
2018-07-14T03:19:00.173Z,0.00
2018-07-14T03:20:00.184Z,0.00
2018-07-14T03:21:00.186Z,0.00
2018-07-14T03:22:00.212Z,0.00
2018-07-14T03:23:00.182Z,0.00
2018-07-14T03:24:00.201Z,0.00
2018-07-14T03:25:00.196Z,0.00
2018-07-14T03:26:00.192Z,0.00
2018-07-14T03:27:00.202Z,0.00
2018-07-14T03:28:00.217Z,0.00
2018-07-14T03:29:00.203Z,0.00
2018-07-14T03:30:00.207Z,5.63
2018-07-14T03:31:00.210Z,5.63
2018-07-14T03:32:00.208Z,5.63
2018-07-14T03:33:00.213Z,5.63
2018-07-14T03:34:00.219Z,5.63
2018-07-14T03:35:00.215Z,5.63
2018-07-14T03:36:00.223Z,5.63
2018-07-14T03:37:00.224Z,5.63
2018-07-14T03:38:00.220Z,5.63
2018-07-14T03:39:00.229Z,5.63
2018-07-14T03:40:00.246Z,11.25
2018-07-14T03:41:00.235Z,11.25
2018-07-14T03:42:00.317Z,11.25
2018-07-14T03:43:00.285Z,11.25
2018-07-14T03:44:00.259Z,11.25
2018-07-14T03:45:00.264Z,16.88
2018-07-14T03:46:00.244Z,11.25
2018-07-14T03:47:00.256Z,11.25
2018-07-14T03:48:00.259Z,11.25
2018-07-14T03:49:00.261Z,11.25
2018-07-14T03:50:00.252Z,11.25
2018-07-14T03:51:00.272Z,11.25
2018-07-14T03:52:00.284Z,11.25
2018-07-14T03:53:00.868Z,11.25
2018-07-14T03:54:00.274Z,11.25
2018-07-14T03:55:00.284Z,16.88
2018-07-14T03:56:00.273Z,16.88
2018-07-14T03:57:00.366Z,11.25
2018-07-14T03:58:00.276Z,11.25
2018-07-14T03:59:00.291Z,11.25
2018-07-14T04:00:00.288Z,16.88
2018-07-14T04:01:00.289Z,16.88
2018-07-14T04:02:00.287Z,16.88
2018-07-14T04:03:00.287Z,16.88
2018-07-14T04:04:00.291Z,22.50
2018-07-14T04:05:00.311Z,22.50
2018-07-14T04:06:00.304Z,22.50
2018-07-14T04:07:00.294Z,22.50
2018-07-14T04:08:00.301Z,22.50
2018-07-14T04:09:00.306Z,28.13
2018-07-14T04:10:00.323Z,28.13
2018-07-14T04:11:00.320Z,33.75
2018-07-14T04:12:00.316Z,33.75
2018-07-14T04:13:00.317Z,33.75
2018-07-14T04:14:00.326Z,39.38
2018-07-14T04:15:00.323Z,39.38
2018-07-14T04:16:00.324Z,39.38
2018-07-14T04:17:00.330Z,39.38
2018-07-14T04:18:00.326Z,45.00
2018-07-14T04:19:00.372Z,50.63
2018-07-14T04:20:00.329Z,50.63
2018-07-14T04:21:00.352Z,56.25
2018-07-14T04:22:00.339Z,56.25
2018-07-14T04:23:00.355Z,50.63
2018-07-14T04:24:00.344Z,50.63
2018-07-14T04:25:00.349Z,50.63
2018-07-14T04:26:00.354Z,56.25
2018-07-14T04:27:00.352Z,56.25
2018-07-14T04:28:00.362Z,61.88
2018-07-14T04:29:00.367Z,61.88
2018-07-14T04:30:00.358Z,61.88
2018-07-14T04:31:00.371Z,61.88
2018-07-14T04:32:00.409Z,56.25
2018-07-14T04:33:00.399Z,56.25
2018-07-14T04:34:00.391Z,56.25
2018-07-14T04:35:00.367Z,56.25
2018-07-14T04:36:00.374Z,61.88
2018-07-14T04:37:00.381Z,67.50
2018-07-14T04:38:00.384Z,67.50
2018-07-14T04:39:00.403Z,73.13
2018-07-14T04:40:00.393Z,73.13
2018-07-14T04:41:00.403Z,73.13
2018-07-14T04:42:00.397Z,73.13
2018-07-14T04:43:00.391Z,73.13
2018-07-14T04:44:00.394Z,73.13
2018-07-14T04:45:00.394Z,73.13
2018-07-14T04:46:00.409Z,78.75
2018-07-14T04:47:00.409Z,78.75
2018-07-14T04:48:00.428Z,84.38
2018-07-14T04:49:00.410Z,90.00
2018-07-14T04:50:00.415Z,95.63
2018-07-14T04:51:00.423Z,101.25
2018-07-14T04:52:00.425Z,106.88
2018-07-14T04:53:00.471Z,112.50
2018-07-14T04:54:00.431Z,112.50
2018-07-14T04:55:00.431Z,112.50
2018-07-14T04:56:00.425Z,106.88
2018-07-14T04:57:00.433Z,106.88
2018-07-14T04:58:00.462Z,106.88
2018-07-14T04:59:00.437Z,112.50
2018-07-14T05:00:00.449Z,112.50
2018-07-14T05:01:00.454Z,112.50
2018-07-14T05:02:00.450Z,112.50
2018-07-14T05:03:00.465Z,112.50
2018-07-14T05:04:00.447Z,123.75
2018-07-14T05:05:00.458Z,123.75
2018-07-14T05:06:00.480Z,129.38
2018-07-14T05:07:00.462Z,135.00
2018-07-14T05:08:00.461Z,135.00
2018-07-14T05:09:00.460Z,140.63
2018-07-14T05:10:01.396Z,146.25
2018-07-14T05:11:00.471Z,146.25
2018-07-14T05:12:00.476Z,140.63
2018-07-14T05:13:00.474Z,146.25
2018-07-14T05:14:00.486Z,151.88
2018-07-14T05:15:00.483Z,157.50
2018-07-14T05:16:00.489Z,157.50
2018-07-14T05:17:00.481Z,163.13
2018-07-14T05:18:00.509Z,163.13
2018-07-14T05:19:00.498Z,174.38
2018-07-14T05:20:00.493Z,196.88
2018-07-14T05:21:00.502Z,219.38
2018-07-14T05:22:00.490Z,247.50
2018-07-14T05:23:00.512Z,270.00
2018-07-14T05:24:00.512Z,270.00
2018-07-14T05:25:00.531Z,275.63
2018-07-14T05:26:00.508Z,281.25
2018-07-14T05:27:00.508Z,264.38
2018-07-14T05:28:00.617Z,253.13
2018-07-14T05:29:00.527Z,230.63
2018-07-14T05:30:00.522Z,241.88
2018-07-14T05:31:00.530Z,264.38
2018-07-14T05:32:00.530Z,292.50
2018-07-14T05:33:00.556Z,298.13
2018-07-14T05:34:00.545Z,298.13
2018-07-14T05:35:00.535Z,292.50
2018-07-14T05:36:00.567Z,298.13
2018-07-14T05:37:00.539Z,286.88
2018-07-14T05:38:00.540Z,309.38
2018-07-14T05:39:00.554Z,315.00
2018-07-14T05:40:00.552Z,326.25
2018-07-14T05:41:00.555Z,337.50
2018-07-14T05:42:00.576Z,348.75
2018-07-14T05:43:00.569Z,343.13
2018-07-14T05:44:00.614Z,343.13
2018-07-14T05:45:00.566Z,354.38
2018-07-14T05:46:00.572Z,360.00
2018-07-14T05:47:00.575Z,337.50
2018-07-14T05:48:00.582Z,348.75
2018-07-14T05:49:00.582Z,360.00
2018-07-14T05:50:00.598Z,371.25
2018-07-14T05:51:00.592Z,371.25
2018-07-14T05:52:00.651Z,337.50
2018-07-14T05:53:00.601Z,360.00
2018-07-14T05:54:00.607Z,281.25
2018-07-14T05:55:00.623Z,292.50
2018-07-14T05:56:00.620Z,393.75
2018-07-14T05:57:00.623Z,382.50
2018-07-14T05:58:00.638Z,354.38
2018-07-14T05:59:00.640Z,388.13
2018-07-14T06:00:00.646Z,281.25
2018-07-14T06:01:00.639Z,365.63
2018-07-14T06:02:00.651Z,399.38
2018-07-14T06:03:00.647Z,405.00
2018-07-14T06:04:00.697Z,433.13
2018-07-14T06:05:00.674Z,438.75
2018-07-14T06:06:00.675Z,410.63
2018-07-14T06:07:00.671Z,433.13
2018-07-14T06:08:00.674Z,444.38
2018-07-14T06:09:00.682Z,416.25
2018-07-14T06:10:00.694Z,433.13
2018-07-14T06:11:00.693Z,360.00
2018-07-14T06:12:00.734Z,393.75
2018-07-14T06:13:00.737Z,376.88
2018-07-14T06:14:00.723Z,331.88
2018-07-14T06:15:00.721Z,354.38
2018-07-14T06:16:00.733Z,337.50
2018-07-14T06:17:00.738Z,376.88
2018-07-14T06:18:00.765Z,433.13
2018-07-14T06:19:00.752Z,444.38
2018-07-14T06:20:00.768Z,461.25
2018-07-14T06:21:00.765Z,489.38
2018-07-14T06:22:00.762Z,500.63
2018-07-14T06:23:00.773Z,506.25
2018-07-14T06:24:00.780Z,523.13
2018-07-14T06:25:00.784Z,528.75
2018-07-14T06:26:00.789Z,523.13
2018-07-14T06:27:00.795Z,551.25
2018-07-14T06:28:00.816Z,540.00
2018-07-14T06:29:00.833Z,534.38
2018-07-14T06:30:00.817Z,523.13
2018-07-14T06:31:00.817Z,534.38
2018-07-14T06:32:00.920Z,545.63
2018-07-14T06:33:00.855Z,540.00
2018-07-14T06:34:00.854Z,540.00
2018-07-14T06:35:00.853Z,540.00
2018-07-14T06:36:00.862Z,562.50
2018-07-14T06:37:00.880Z,551.25
2018-07-14T06:38:00.879Z,556.88
2018-07-14T06:39:00.891Z,562.50
2018-07-14T06:40:00.891Z,562.50
2018-07-14T06:41:00.916Z,568.13
2018-07-14T06:42:00.902Z,579.38
2018-07-14T06:43:00.959Z,579.38
2018-07-14T06:44:00.919Z,585.00
2018-07-14T06:45:00.934Z,596.25
2018-07-14T06:46:00.954Z,613.13
2018-07-14T06:47:00.961Z,613.13
2018-07-14T06:48:00.957Z,624.38
2018-07-14T06:49:01.436Z,630.00
2018-07-14T06:50:00.977Z,635.63
2018-07-14T06:51:00.984Z,635.63
2018-07-14T06:52:01.007Z,641.25
2018-07-14T06:53:01.002Z,646.88
2018-07-14T06:54:01.009Z,652.50
2018-07-14T06:55:01.020Z,663.75
2018-07-14T06:56:01.029Z,663.75
2018-07-14T06:57:01.036Z,663.75
2018-07-14T06:58:01.047Z,669.38
2018-07-14T06:59:01.098Z,675.00
2018-07-14T07:00:01.073Z,669.38
2018-07-14T07:01:01.082Z,675.00
2018-07-14T07:02:01.093Z,680.63
2018-07-14T07:03:01.113Z,691.88
2018-07-14T07:04:01.107Z,708.75
2018-07-14T07:05:01.142Z,703.13
2018-07-14T07:06:01.130Z,714.38
2018-07-14T07:07:01.147Z,714.38
2018-07-14T07:08:01.168Z,720.00
2018-07-14T07:09:01.160Z,731.25
2018-07-14T07:10:01.203Z,731.25
2018-07-14T07:11:01.182Z,731.25
2018-07-14T07:12:01.232Z,742.50
2018-07-14T07:13:01.212Z,748.13
2018-07-14T07:14:01.218Z,742.50
2018-07-14T07:15:01.227Z,759.38
2018-07-14T07:16:01.240Z,753.75
2018-07-14T07:17:01.247Z,765.00
2018-07-14T07:18:01.254Z,770.63
2018-07-14T07:19:01.290Z,770.63
2018-07-14T07:20:01.284Z,781.88
2018-07-14T07:21:01.297Z,810.00
2018-07-14T07:22:01.317Z,787.50
2018-07-14T07:23:01.324Z,810.00
2018-07-14T07:24:01.371Z,810.00
2018-07-14T07:25:01.339Z,798.75
2018-07-14T07:26:01.347Z,815.63
2018-07-14T07:27:01.370Z,821.25
2018-07-14T07:28:01.392Z,826.88
2018-07-14T07:29:01.398Z,843.75
2018-07-14T07:30:01.404Z,849.38
2018-07-14T07:31:01.452Z,855.00
2018-07-14T07:32:01.459Z,849.38
2018-07-14T07:33:01.444Z,860.63
2018-07-14T07:34:01.497Z,871.88
2018-07-14T07:35:01.470Z,860.63
2018-07-14T07:36:01.474Z,855.00
2018-07-14T07:37:01.528Z,871.88
2018-07-14T07:38:01.497Z,483.75
2018-07-14T07:39:01.512Z,900.00
2018-07-14T07:40:01.527Z,894.38
2018-07-14T07:41:01.580Z,905.63
2018-07-14T07:42:01.572Z,922.50
2018-07-14T07:43:01.562Z,939.38
2018-07-14T07:44:01.607Z,978.75
2018-07-14T07:45:01.615Z,945.00
2018-07-14T07:46:01.612Z,776.25
2018-07-14T07:47:01.656Z,1068.75
2018-07-14T07:48:01.632Z,1080.00
2018-07-14T07:49:01.689Z,1063.13
2018-07-14T07:50:01.665Z,1029.38
2018-07-14T07:51:01.677Z,1035.00
2018-07-14T07:52:01.714Z,1063.13
2018-07-14T07:53:01.693Z,1102.50
2018-07-14T07:54:01.773Z,1001.25
2018-07-14T07:55:01.745Z,686.25
2018-07-14T07:56:01.732Z,1023.75
2018-07-14T07:57:01.792Z,1046.25
2018-07-14T07:58:01.782Z,781.88
2018-07-14T07:59:01.855Z,1074.38
2018-07-14T08:00:01.789Z,866.25
2018-07-14T08:01:01.820Z,838.13
2018-07-14T08:02:01.816Z,1080.00
2018-07-14T08:03:01.868Z,1096.88
2018-07-14T08:04:01.841Z,1113.75
2018-07-14T08:05:04.567Z,1164.38
2018-07-14T08:06:01.872Z,1119.38
2018-07-14T08:07:01.912Z,1158.75
2018-07-14T08:08:01.929Z,1136.25
2018-07-14T08:09:01.904Z,1130.63
2018-07-14T08:10:01.979Z,1130.63
2018-07-14T08:11:01.950Z,1170.00
2018-07-14T08:12:01.951Z,1186.88
2018-07-14T08:13:02.000Z,1209.38
2018-07-14T08:14:02.026Z,1215.00
2018-07-14T08:15:02.025Z,1237.50
2018-07-14T08:16:02.040Z,1254.38
2018-07-14T08:17:02.053Z,1327.50
2018-07-14T08:18:02.050Z,1378.13
2018-07-14T08:19:03.003Z,1428.75
2018-07-14T08:20:02.074Z,1456.88
2018-07-14T08:21:02.103Z,1524.38
2018-07-14T08:22:02.102Z,1636.88
2018-07-14T08:23:02.203Z,1710.00
2018-07-14T08:24:02.153Z,1783.13
2018-07-14T08:25:02.146Z,1890.00
2018-07-14T08:26:02.175Z,2002.50
2018-07-14T08:27:02.198Z,2103.75
2018-07-14T08:28:02.202Z,2188.13
2018-07-14T08:29:03.017Z,2396.25
2018-07-14T08:30:02.242Z,2508.75
2018-07-14T08:31:02.262Z,2610.00
2018-07-14T08:32:02.254Z,3397.50
2018-07-14T08:33:02.280Z,4066.88
2018-07-14T08:34:02.284Z,4263.75
2018-07-14T08:35:02.342Z,4269.38
2018-07-14T08:36:02.327Z,4275.00
2018-07-14T08:37:02.343Z,4213.13
2018-07-14T08:38:02.419Z,2137.50
2018-07-14T08:39:02.378Z,4651.88
2018-07-14T08:40:02.406Z,4252.50
2018-07-14T08:41:02.434Z,2835.00
2018-07-14T08:42:02.469Z,3892.50
2018-07-14T08:43:02.440Z,3937.50
2018-07-14T08:44:02.477Z,3926.25
2018-07-14T08:45:02.488Z,3858.75
2018-07-14T08:46:02.506Z,3661.88
2018-07-14T08:47:02.491Z,3515.63
2018-07-14T08:48:02.573Z,3453.75
2018-07-14T08:49:02.588Z,3183.75
2018-07-14T08:50:02.554Z,3076.88
2018-07-14T08:51:02.687Z,2964.38
2018-07-14T08:52:02.587Z,2891.25
2018-07-14T08:53:02.608Z,2885.63
2018-07-14T08:54:02.615Z,2908.13
2018-07-14T08:55:02.669Z,2891.25
2018-07-14T08:56:02.647Z,2823.75
2018-07-14T08:57:02.697Z,2576.25
2018-07-14T08:58:02.733Z,2728.13
2018-07-14T08:59:02.723Z,2694.38
2018-07-14T09:00:02.766Z,2728.13
2018-07-14T09:01:02.750Z,2666.25
2018-07-14T09:02:02.768Z,2700.00
2018-07-14T09:03:02.779Z,2835.00
2018-07-14T09:04:02.827Z,2829.38
2018-07-14T09:05:02.846Z,2688.75
2018-07-14T09:06:02.826Z,2295.00
2018-07-14T09:07:02.851Z,2610.00
2018-07-14T09:08:02.893Z,2761.88
2018-07-14T09:09:02.937Z,2790.00
2018-07-14T09:10:02.900Z,2750.63
2018-07-14T09:11:02.948Z,2660.63
2018-07-14T09:12:02.946Z,2716.88
2018-07-14T09:13:02.979Z,2722.50
2018-07-14T09:14:03.017Z,2649.38
2018-07-14T09:15:02.994Z,2587.50
2018-07-14T09:16:03.011Z,2536.88
2018-07-14T09:17:03.062Z,2480.63
2018-07-14T09:18:03.041Z,2508.75
2018-07-14T09:19:03.085Z,2531.25
2018-07-14T09:20:03.107Z,2576.25
2018-07-14T09:21:04.044Z,2655.00
2018-07-14T09:22:03.139Z,2716.88
2018-07-14T09:23:03.137Z,2716.88
2018-07-14T09:24:03.157Z,2705.63
2018-07-14T09:25:03.263Z,2671.88
2018-07-14T09:26:03.206Z,2593.13
2018-07-14T09:27:03.220Z,2711.25
2018-07-14T09:28:03.313Z,2829.38
2018-07-14T09:29:03.258Z,2846.25
2018-07-14T09:30:03.286Z,2823.75
2018-07-14T09:31:03.305Z,2835.00
2018-07-14T09:32:03.361Z,2891.25
2018-07-14T09:33:03.347Z,2941.88
2018-07-14T09:34:03.368Z,2953.13
2018-07-14T09:35:03.417Z,2992.50
2018-07-14T09:36:03.426Z,2818.13
2018-07-14T09:37:03.417Z,3065.63
2018-07-14T09:38:03.543Z,3133.13
2018-07-14T09:39:03.462Z,3217.50
2018-07-14T09:40:03.528Z,3391.88
2018-07-14T09:41:03.506Z,3577.50
2018-07-14T09:42:03.538Z,3656.25
2018-07-14T09:43:03.558Z,3583.13
2018-07-14T09:44:03.609Z,3465.00
2018-07-14T09:45:03.569Z,3414.38
2018-07-14T09:46:03.634Z,3414.38
2018-07-14T09:47:03.655Z,3307.50
2018-07-14T09:48:03.645Z,3318.75
2018-07-14T09:50:35.846Z,2868.75
2018-07-14T09:51:36.965Z,2148.75
2018-07-14T09:52:35.863Z,3183.75
2018-07-14T09:53:35.895Z,3639.38
2018-07-14T09:54:35.877Z,3611.25
2018-07-14T09:55:35.915Z,3633.75
2018-07-14T09:56:35.926Z,3678.75
2018-07-14T09:57:35.931Z,3684.38
2018-07-14T09:58:35.969Z,3622.50
2018-07-14T09:59:35.982Z,3583.13
2018-07-14T10:00:36.030Z,3628.13
2018-07-14T10:01:36.021Z,3791.25
2018-07-14T10:02:36.036Z,3853.13
2018-07-14T10:03:36.138Z,3903.75
2018-07-14T10:04:36.072Z,3858.75
2018-07-14T10:05:36.119Z,3802.50
2018-07-14T10:06:36.188Z,3791.25
2018-07-14T10:07:36.177Z,3735.00
2018-07-14T10:08:36.164Z,3813.75
2018-07-14T10:09:36.180Z,3858.75
2018-07-14T10:10:36.255Z,3875.63
2018-07-14T10:11:36.237Z,3791.25
2018-07-14T10:12:36.282Z,3673.13
2018-07-14T10:13:36.776Z,3453.75
2018-07-14T10:14:36.303Z,3285.00
2018-07-14T10:15:36.368Z,3121.88
2018-07-14T10:18:08.566Z,2418.75
2018-07-14T10:19:08.499Z,2475.00
2018-07-14T10:20:08.559Z,2407.50
2018-07-14T10:21:08.552Z,1963.13
2018-07-14T10:22:08.595Z,1282.50
2018-07-14T10:23:08.607Z,2115.00
2018-07-14T10:24:08.609Z,2278.13
2018-07-14T10:25:08.691Z,2221.88
2018-07-14T10:26:08.661Z,2154.38
2018-07-14T10:27:08.687Z,1625.63
2018-07-14T10:28:08.687Z,2131.88
2018-07-14T10:29:08.797Z,2041.88
2018-07-14T10:30:08.727Z,2120.63
2018-07-14T10:31:08.779Z,2002.50
2018-07-14T10:32:08.776Z,1935.00
2018-07-14T10:33:08.822Z,2041.88
2018-07-14T10:34:09.462Z,1991.25
2018-07-14T10:35:08.826Z,2058.75
2018-07-14T10:36:08.911Z,2193.75
2018-07-14T10:37:08.883Z,2722.50
2018-07-14T10:38:08.896Z,3386.25
2018-07-14T10:39:09.037Z,3234.38
2018-07-14T10:40:08.979Z,3133.13
2018-07-14T10:41:08.952Z,3121.88
2018-07-14T10:42:09.028Z,2975.63
2018-07-14T10:43:08.984Z,2998.13
2018-07-14T10:44:09.036Z,3043.13
2018-07-14T10:45:09.052Z,2891.25
2018-07-14T10:46:09.055Z,2621.25
2018-07-14T10:47:09.061Z,1710.00
2018-07-14T10:48:09.078Z,832.50
2018-07-14T10:49:09.106Z,523.13
2018-07-14T10:50:09.140Z,500.63
2018-07-14T10:51:09.173Z,495.00
2018-07-14T10:52:09.201Z,483.75
2018-07-14T10:53:09.169Z,466.88
2018-07-14T10:54:09.313Z,455.63
2018-07-14T10:55:09.219Z,433.13
2018-07-14T10:56:09.237Z,427.50
2018-07-14T10:57:09.267Z,433.13
2018-07-14T10:58:09.285Z,410.63
2018-07-14T10:59:09.299Z,399.38
2018-07-14T11:00:09.283Z,405.00
2018-07-14T11:01:09.307Z,421.88
2018-07-14T11:02:09.316Z,472.50
2018-07-14T11:03:09.379Z,517.50
2018-07-14T11:04:09.349Z,528.75
2018-07-14T11:05:09.402Z,511.88
2018-07-14T11:06:09.443Z,523.13
2018-07-14T11:07:09.394Z,461.25
2018-07-14T11:08:09.408Z,455.63
2018-07-14T11:09:09.451Z,427.50
2018-07-14T11:10:09.425Z,399.38
2018-07-14T11:11:09.462Z,461.25
2018-07-14T11:12:09.479Z,438.75
2018-07-14T11:13:09.528Z,433.13
2018-07-14T11:14:09.513Z,438.75
2018-07-14T11:15:09.486Z,416.25
2018-07-14T11:16:09.506Z,399.38
2018-07-14T11:17:09.545Z,388.13
2018-07-14T11:18:09.573Z,371.25
2018-07-14T11:19:10.480Z,371.25
2018-07-14T11:20:09.552Z,393.75
2018-07-14T11:21:09.587Z,399.38
2018-07-14T11:22:09.594Z,399.38
2018-07-14T11:23:09.605Z,399.38
2018-07-14T11:24:09.616Z,399.38
2018-07-14T11:25:09.679Z,376.88
2018-07-14T11:26:09.622Z,365.63
2018-07-14T11:27:09.637Z,348.75
2018-07-14T11:28:09.638Z,337.50
2018-07-14T11:29:09.760Z,337.50
2018-07-14T11:30:09.668Z,337.50
2018-07-14T11:31:09.667Z,343.13
2018-07-14T11:32:09.683Z,348.75
2018-07-14T11:33:09.687Z,343.13
2018-07-14T11:34:09.702Z,343.13
2018-07-14T11:35:09.729Z,337.50
2018-07-14T11:36:09.729Z,376.88
2018-07-14T11:37:09.728Z,382.50
2018-07-14T11:38:09.781Z,376.88
2018-07-14T11:39:10.503Z,365.63
2018-07-14T11:40:09.760Z,360.00
2018-07-14T11:41:09.766Z,399.38
2018-07-14T11:42:09.832Z,410.63
2018-07-14T11:43:09.786Z,416.25
2018-07-14T11:44:09.837Z,421.88
2018-07-14T11:45:09.806Z,410.63
2018-07-14T11:46:09.823Z,388.13
2018-07-14T11:47:09.868Z,348.75
2018-07-14T11:48:09.830Z,331.88
2018-07-14T11:49:10.500Z,315.00
2018-07-14T11:50:09.852Z,331.88
2018-07-14T11:51:09.870Z,348.75
2018-07-14T11:52:09.884Z,343.13
2018-07-14T11:53:09.883Z,326.25
2018-07-14T11:54:09.959Z,326.25
2018-07-14T11:55:09.915Z,354.38
2018-07-14T11:56:09.932Z,360.00
2018-07-14T11:57:09.941Z,354.38
2018-07-14T11:58:09.926Z,315.00
2018-07-14T11:59:09.945Z,281.25
2018-07-14T12:00:09.955Z,253.13
2018-07-14T12:01:09.951Z,258.75
2018-07-14T12:02:09.966Z,286.88
2018-07-14T12:03:09.983Z,264.38
2018-07-14T12:04:10.009Z,270.00
2018-07-14T12:05:09.996Z,281.25
2018-07-14T12:06:10.016Z,343.13
2018-07-14T12:07:10.057Z,309.38
2018-07-14T12:08:10.018Z,286.88
2018-07-14T12:09:10.030Z,298.13
2018-07-14T12:10:10.052Z,303.75
2018-07-14T12:11:10.043Z,320.63
2018-07-14T12:12:10.052Z,337.50
2018-07-14T12:13:10.061Z,331.88
2018-07-14T12:14:10.194Z,253.13
2018-07-14T12:15:10.086Z,241.88
2018-07-14T12:16:10.107Z,270.00
2018-07-14T12:17:10.105Z,275.63
2018-07-14T12:18:10.123Z,275.63
2018-07-14T12:19:10.184Z,309.38
2018-07-14T12:20:10.154Z,281.25
2018-07-14T12:21:10.137Z,264.38
2018-07-14T12:22:10.146Z,264.38
2018-07-14T12:23:10.148Z,281.25
2018-07-14T12:24:11.021Z,320.63
2018-07-14T12:25:10.168Z,298.13
2018-07-14T12:26:10.200Z,326.25
2018-07-14T12:27:10.204Z,360.00
2018-07-14T12:28:10.190Z,309.38
2018-07-14T12:29:10.206Z,241.88
2018-07-14T12:30:10.278Z,208.13
2018-07-14T12:31:10.213Z,191.25
2018-07-14T12:32:10.224Z,174.38
2018-07-14T12:33:10.234Z,163.13
2018-07-14T12:34:10.241Z,185.63
2018-07-14T12:35:10.264Z,213.75
2018-07-14T12:36:10.255Z,219.38
2018-07-14T12:37:10.287Z,219.38
2018-07-14T12:38:10.316Z,213.75
2018-07-14T12:39:10.277Z,202.50
2018-07-14T12:40:10.308Z,191.25
2018-07-14T12:41:10.294Z,191.25
2018-07-14T12:42:10.323Z,185.63
2018-07-14T12:43:10.382Z,196.88
2018-07-14T12:44:10.338Z,196.88